createdAt,value
2023-01-21T00:02:18.861Z,74.80
2023-01-21T00:04:47.169Z,67.10
2023-01-21T00:07:14.110Z,81.50
2023-01-21T00:09:41.050Z,77.80
2023-01-21T00:12:08.027Z,75.80
2023-01-21T00:14:34.927Z,75.80
2023-01-21T00:17:01.896Z,76.40
2023-01-21T00:19:29.761Z,79.40
2023-01-21T00:21:57.042Z,80.70
2023-01-21T00:24:25.056Z,75.00
2023-01-21T00:26:52.781Z,80.70
2023-01-21T00:29:20.439Z,71.20
2023-01-21T00:31:47.706Z,79.60
2023-01-21T00:34:14.873Z,78.00
2023-01-21T00:36:41.751Z,86.60
2023-01-21T00:39:08.720Z,79.50
2023-01-21T00:41:37.436Z,87.50
2023-01-21T00:44:05.375Z,76.90
2023-01-21T00:46:32.576Z,73.70
2023-01-21T00:49:00.410Z,76.20
2023-01-21T00:51:27.775Z,79.00
2023-01-21T00:53:54.704Z,88.20
2023-01-21T00:56:21.697Z,79.40
2023-01-21T00:58:49.876Z,82.10
2023-01-21T01:01:20.984Z,80.70
2023-01-21T01:03:48.499Z,81.00
2023-01-21T01:06:20.445Z,81.90
2023-01-21T01:08:47.795Z,89.60
2023-01-21T01:11:14.799Z,101.60
2023-01-21T01:13:41.787Z,82.90
2023-01-21T01:16:08.987Z,84.60
2023-01-21T01:18:36.205Z,86.60
2023-01-21T01:21:03.287Z,94.90
2023-01-21T01:23:30.341Z,85.70
2023-01-21T01:25:58.771Z,83.20
2023-01-21T01:28:25.851Z,87.90
2023-01-21T01:30:52.956Z,84.10
2023-01-21T01:33:20.081Z,95.50
2023-01-21T01:35:47.704Z,93.70
2023-01-21T01:38:20.305Z,92.50
2023-01-21T01:40:48.103Z,80.10
2023-01-21T01:43:19.929Z,91.20
2023-01-21T01:45:47.561Z,97.80
2023-01-21T01:48:27.544Z,91.20
2023-01-21T01:51:00.025Z,87.20
2023-01-21T01:53:26.921Z,83.50
2023-01-21T01:55:53.777Z,84.20
2023-01-21T01:58:21.364Z,97.80
2023-01-21T02:00:48.352Z,92.80
2023-01-21T02:03:34.003Z,84.00
2023-01-21T02:06:00.990Z,83.00
2023-01-21T02:08:27.896Z,95.50
2023-01-21T02:10:57.639Z,90.60
2023-01-21T02:13:27.378Z,81.70
2023-01-21T02:16:10.489Z,86.70
2023-01-21T02:18:49.688Z,92.40
2023-01-21T02:21:30.464Z,95.00
2023-01-21T02:24:09.595Z,80.00
2023-01-21T02:26:42.681Z,86.10
2023-01-21T02:29:47.272Z,82.60
2023-01-21T02:32:32.645Z,88.80
2023-01-21T02:35:30.981Z,101.80
2023-01-21T02:38:12.179Z,85.10
2023-01-21T02:40:44.329Z,85.70
2023-01-21T02:43:16.407Z,91.00
2023-01-21T02:45:45.524Z,88.10
2023-01-21T02:48:15.305Z,88.00
2023-01-21T02:50:46.502Z,89.30
2023-01-21T02:53:32.825Z,82.70
2023-01-21T02:56:06.559Z,87.40
2023-01-21T02:58:35.113Z,98.00
2023-01-21T03:01:18.689Z,95.20
2023-01-21T03:04:07.583Z,80.30
2023-01-21T03:06:55.063Z,72.80
2023-01-21T03:09:29.170Z,85.60
2023-01-21T03:12:25.059Z,90.00
2023-01-21T03:15:28.244Z,84.90
2023-01-21T03:18:19.678Z,82.50
2023-01-21T03:20:53.754Z,83.00
2023-01-21T03:23:24.133Z,82.70
2023-01-21T03:25:51.058Z,79.50
2023-01-21T03:28:21.688Z,78.50
2023-01-21T03:30:54.297Z,76.90
2023-01-21T03:33:21.205Z,82.90
2023-01-21T03:35:48.923Z,79.80
2023-01-21T03:38:26.184Z,75.10
2023-01-21T03:41:01.941Z,85.90
2023-01-21T03:43:28.829Z,73.50
2023-01-21T03:50:04.344Z,69.60
2023-01-21T03:52:31.311Z,81.90
2023-01-21T03:54:58.093Z,75.80
2023-01-21T03:57:24.832Z,69.40
2023-01-21T03:59:51.623Z,72.70
2023-01-21T04:02:20.537Z,73.70
2023-01-21T04:04:47.567Z,69.70
2023-01-21T04:07:17.349Z,71.70
2023-01-21T04:09:44.206Z,71.30
2023-01-21T04:12:11.024Z,75.00
2023-01-21T04:14:38.097Z,71.00
2023-01-21T04:17:04.869Z,80.00
2023-01-21T04:19:31.641Z,79.10
2023-01-21T04:21:58.632Z,65.60
2023-01-21T04:24:25.536Z,69.10
2023-01-21T04:26:52.447Z,69.00
2023-01-21T04:29:19.407Z,69.70
2023-01-21T04:31:46.307Z,67.40
2023-01-21T04:34:13.406Z,64.90
2023-01-21T04:36:40.233Z,66.70
2023-01-21T04:39:07.052Z,64.70
2023-01-21T04:41:33.804Z,78.00
2023-01-21T04:44:00.552Z,74.30
2023-01-21T04:46:27.363Z,69.20
2023-01-21T04:48:54.224Z,66.50
2023-01-21T04:51:21.074Z,62.00
2023-01-21T04:53:47.942Z,66.90
2023-01-21T04:56:14.709Z,78.10
2023-01-21T04:58:41.524Z,67.20
2023-01-21T05:01:08.601Z,64.70
2023-01-21T05:03:35.960Z,63.30
2023-01-21T05:06:02.789Z,63.20
2023-01-21T05:08:29.758Z,64.90
2023-01-21T05:10:56.544Z,65.80
2023-01-21T05:13:23.349Z,65.40
2023-01-21T05:15:50.200Z,63.70
2023-01-21T05:18:16.979Z,56.10
2023-01-21T05:23:51.147Z,71.00
2023-01-21T05:26:18.499Z,60.20
2023-01-21T05:28:45.366Z,62.10
2023-01-21T05:31:12.277Z,61.70
2023-01-21T05:33:39.254Z,60.20
2023-01-21T05:36:06.277Z,62.60
2023-01-21T05:38:33.088Z,59.90
2023-01-21T05:41:00.355Z,59.40
2023-01-21T05:43:27.494Z,64.40
2023-01-21T05:45:54.613Z,63.80
2023-01-21T05:48:21.439Z,56.30
2023-01-21T05:50:49.015Z,52.40
2023-01-21T05:53:16.329Z,62.90
2023-01-21T05:55:43.144Z,58.30
2023-01-21T05:58:09.991Z,61.00
2023-01-21T06:00:36.863Z,68.90
2023-01-21T06:03:03.719Z,64.80
2023-01-21T06:05:30.501Z,66.70
2023-01-21T06:07:57.349Z,58.60
2023-01-21T06:10:26.906Z,57.10
2023-01-21T06:12:53.774Z,60.00
2023-01-21T06:15:20.603Z,60.80
2023-01-21T06:17:47.666Z,58.60
2023-01-21T06:20:14.823Z,55.90
2023-01-21T06:22:41.821Z,56.10
2023-01-21T06:25:08.818Z,52.80
2023-01-21T06:27:37.469Z,61.80
2023-01-21T06:30:07.587Z,61.80
2023-01-21T06:32:35.853Z,52.10
2023-01-21T06:35:02.897Z,57.00
2023-01-21T06:37:29.926Z,62.80
2023-01-21T06:39:56.723Z,55.30
2023-01-21T06:42:23.647Z,59.60
2023-01-21T06:44:50.465Z,50.10
2023-01-21T06:47:17.344Z,59.50
2023-01-21T06:49:44.268Z,60.70
2023-01-21T06:52:11.277Z,62.90
2023-01-21T06:54:38.058Z,58.00
2023-01-21T06:57:04.836Z,64.00
2023-01-21T06:59:31.709Z,56.20
2023-01-21T07:01:59.297Z,57.20
2023-01-21T07:04:26.624Z,59.20
2023-01-21T07:06:53.533Z,57.30
2023-01-21T07:09:20.527Z,64.70
2023-01-21T07:11:47.455Z,52.10
2023-01-21T07:14:14.296Z,66.80
2023-01-21T07:16:41.264Z,54.80
2023-01-21T07:19:08.105Z,56.20
2023-01-21T07:21:34.998Z,60.00
2023-01-21T07:24:01.872Z,54.90
2023-01-21T07:26:28.634Z,56.90
2023-01-21T07:28:55.523Z,56.30
2023-01-21T07:31:22.540Z,63.40
2023-01-21T07:33:49.431Z,60.70
2023-01-21T07:36:16.165Z,47.20
2023-01-21T07:38:42.959Z,56.10
2023-01-21T07:41:09.733Z,57.60
2023-01-21T07:43:36.692Z,56.30
2023-01-21T07:46:03.502Z,60.90
2023-01-21T07:48:30.577Z,64.80
2023-01-21T07:51:00.592Z,69.90
2023-01-21T07:53:27.391Z,63.50
2023-01-21T07:55:57.114Z,69.50
2023-01-21T07:58:23.920Z,66.70
2023-01-21T08:00:50.741Z,53.80
2023-01-21T08:03:20.125Z,66.70
2023-01-21T08:05:46.989Z,57.40
2023-01-21T08:08:13.823Z,62.80
2023-01-21T08:10:40.691Z,63.50
2023-01-21T08:13:08.006Z,59.30
2023-01-21T08:15:34.810Z,53.60
2023-01-21T08:18:01.644Z,52.80
2023-01-21T08:20:28.557Z,67.70
2023-01-21T08:22:59.036Z,52.70
2023-01-21T08:25:25.811Z,60.50
2023-01-21T08:27:52.688Z,54.60
2023-01-21T08:30:20.453Z,60.40
2023-01-21T08:32:47.388Z,58.20
2023-01-21T10:39:53.396Z,59.70
2023-01-21T10:42:49.179Z,58.70
2023-01-21T10:45:23.938Z,76.50
2023-01-21T10:48:02.659Z,65.40
2023-01-21T10:50:47.094Z,65.70
2023-01-21T10:53:27.978Z,67.80
2023-01-21T10:58:47.467Z,66.20
2023-01-21T11:01:34.839Z,66.30
2023-01-21T11:04:15.410Z,69.20
2023-01-21T11:06:43.781Z,71.40
2023-01-21T11:09:12.796Z,78.50
2023-01-21T11:11:41.087Z,81.80
2023-01-21T11:14:08.584Z,72.20
2023-01-21T11:16:38.287Z,78.40
2023-01-21T11:19:06.280Z,79.90
2023-01-21T11:21:33.423Z,73.60
2023-01-21T11:24:04.480Z,84.40
2023-01-21T11:26:35.849Z,63.50
2023-01-21T11:29:12.796Z,72.60
2023-01-21T11:31:50.983Z,78.40
2023-01-21T11:34:19.679Z,75.10
2023-01-21T11:36:57.527Z,78.20
2023-01-21T11:39:25.788Z,74.40
2023-01-21T11:42:15.713Z,88.30
2023-01-21T11:44:53.391Z,83.10
2023-01-21T11:47:40.797Z,75.90
2023-01-21T11:50:16.163Z,70.40
2023-01-21T11:52:43.692Z,68.60
2023-01-21T11:55:40.711Z,77.70
2023-01-21T11:58:28.682Z,85.20
2023-01-21T12:00:58.331Z,75.80
2023-01-21T12:03:30.417Z,74.40
2023-01-21T12:05:58.975Z,82.60
2023-01-21T12:08:28.348Z,72.40
2023-01-21T12:10:56.340Z,71.90
2023-01-21T12:13:57.680Z,69.40
2023-01-21T12:16:55.286Z,65.60
2023-01-21T12:19:37.089Z,75.20
2023-01-21T12:24:53.098Z,67.30
2023-01-21T12:27:34.998Z,77.50
2023-01-21T12:30:16.483Z,72.90
2023-01-21T12:32:56.133Z,75.90
2023-01-21T12:35:28.443Z,91.40
2023-01-21T12:38:13.416Z,66.80
2023-01-21T12:40:56.783Z,74.20
2023-01-21T12:43:26.763Z,72.10
2023-01-21T12:46:17.064Z,66.10
2023-01-21T12:48:51.921Z,83.00
2023-01-21T12:51:31.874Z,78.40
2023-01-21T12:54:04.034Z,79.70
2023-01-21T12:56:50.442Z,82.60
2023-01-21T12:59:22.806Z,73.00
2023-01-21T13:01:59.897Z,67.00
2023-01-21T13:04:44.647Z,72.30
2023-01-21T13:07:14.739Z,72.50
2023-01-21T13:10:00.483Z,79.70
2023-01-21T13:12:29.088Z,76.80
2023-01-21T13:15:11.274Z,88.50
2023-01-21T13:17:41.547Z,76.30
2023-01-21T13:20:19.121Z,69.60
2023-01-21T13:22:46.562Z,61.10
2023-01-21T13:25:16.013Z,72.80
2023-01-21T13:28:00.380Z,66.00
2023-01-21T13:30:28.077Z,67.70
2023-01-21T13:33:23.264Z,62.30
2023-01-21T13:36:09.197Z,60.10
2023-01-21T13:38:45.868Z,71.90
2023-01-21T13:41:12.727Z,63.20
2023-01-21T13:44:17.658Z,59.50
2023-01-21T13:47:16.841Z,53.40
2023-01-21T13:49:52.765Z,49.70
2023-01-21T13:52:23.991Z,57.70
2023-01-21T18:17:47.369Z,155.90
2023-01-21T18:21:51.257Z,163.40
2023-01-21T18:24:18.726Z,146.90
2023-01-21T18:26:48.723Z,146.20
2023-01-21T18:29:17.688Z,129.80
2023-01-21T18:31:45.642Z,142.90
2023-01-21T18:34:12.761Z,134.80
2023-01-21T18:36:39.638Z,120.50
2023-01-21T18:39:16.629Z,127.40
2023-01-21T18:41:43.375Z,105.80
2023-01-21T18:44:10.204Z,125.50
2023-01-21T18:46:43.655Z,99.50
2023-01-21T18:49:18.068Z,102.40
2023-01-21T18:51:45.100Z,107.50
2023-01-21T18:54:12.704Z,89.30
2023-01-21T18:56:40.774Z,78.00
2023-01-21T18:59:17.521Z,80.80
2023-01-21T19:01:44.451Z,81.20
2023-01-21T19:04:13.743Z,66.30
2023-01-21T19:06:41.191Z,76.90
2023-01-21T19:09:22.367Z,62.80
2023-01-21T19:11:49.926Z,70.10
2023-01-21T19:14:17.136Z,63.50
2023-01-21T19:16:44.043Z,59.50
2023-01-21T19:19:12.530Z,62.50
2023-01-21T19:21:39.350Z,62.00
2023-01-21T19:24:06.667Z,61.40
2023-01-21T19:26:34.180Z,67.50
2023-01-21T19:29:02.295Z,52.50
2023-01-21T19:31:29.918Z,58.50
2023-01-21T19:33:56.805Z,62.00
2023-01-21T19:36:23.792Z,57.50
2023-01-21T19:38:54.705Z,58.50
2023-01-21T19:41:21.497Z,50.40
2023-01-21T19:43:48.281Z,50.50
2023-01-21T19:46:16.473Z,60.90
2023-01-21T19:48:43.618Z,61.40
2023-01-21T19:51:10.460Z,64.80
2023-01-21T19:53:37.255Z,65.20
2023-01-21T19:56:04.566Z,59.20
2023-01-21T19:58:31.532Z,57.10
2023-01-21T20:00:58.492Z,59.40
2023-01-21T20:03:25.565Z,60.80
2023-01-21T20:05:54.284Z,61.30
2023-01-21T20:08:22.238Z,63.50
2023-01-21T20:10:49.675Z,59.50
2023-01-21T20:13:17.174Z,58.00
2023-01-21T20:15:44.752Z,57.30
2023-01-21T20:18:22.312Z,49.70
2023-01-21T20:20:49.448Z,71.00
2023-01-21T20:23:16.351Z,52.70
2023-01-21T20:25:44.847Z,58.80
2023-01-21T20:28:33.295Z,62.60
2023-01-21T20:31:03.560Z,60.00
2023-01-21T20:33:30.509Z,57.60
2023-01-21T20:35:57.452Z,50.90
2023-01-21T20:38:29.527Z,53.20
2023-01-21T20:40:57.341Z,54.00
2023-01-21T20:43:24.792Z,55.10
2023-01-21T20:45:51.964Z,56.60
2023-01-21T20:48:29.363Z,55.30
2023-01-21T20:50:56.975Z,54.40
2023-01-21T20:53:24.082Z,59.60
2023-01-21T20:55:51.355Z,54.40
2023-01-21T20:58:18.859Z,52.50
2023-01-21T21:00:46.182Z,61.90
2023-01-21T21:03:16.191Z,57.10
2023-01-21T21:05:46.846Z,52.40
2023-01-21T21:08:16.001Z,54.30
2023-01-21T21:10:42.877Z,51.60
2023-01-21T21:13:09.868Z,55.90
2023-01-21T21:15:37.452Z,54.00
2023-01-21T21:18:05.404Z,49.90
2023-01-21T21:20:34.858Z,51.90
2023-01-21T21:23:01.977Z,53.00
2023-01-21T21:25:30.388Z,57.80
2023-01-21T21:27:57.213Z,57.40
2023-01-21T21:30:25.709Z,58.00
2023-01-21T21:32:52.523Z,54.00
2023-01-21T21:35:24.940Z,57.60
2023-01-21T21:37:52.092Z,57.80
2023-01-21T21:40:20.063Z,52.20
2023-01-21T21:43:06.044Z,65.70
2023-01-21T21:45:36.183Z,59.30
2023-01-21T21:48:22.559Z,57.60
2023-01-21T21:50:56.231Z,55.80
2023-01-21T21:53:29.557Z,51.30
2023-01-21T21:56:04.588Z,53.70
2023-01-21T21:58:31.731Z,53.70
2023-01-21T22:01:07.976Z,52.90
2023-01-21T22:03:35.149Z,56.80
2023-01-21T22:06:03.492Z,58.40
2023-01-21T22:08:32.233Z,60.90
